sensor_id;sensor_type;location;lat;lon;timestamp;pressure;altitude;pressure_sealevel;temperature;humidity
60089;BME280;45961;53.574;55.878;2022-12-05T00:00:53;102121.22;;;-12.33;80.82
60089;BME280;45961;53.574;55.878;2022-12-05T00:01:54;102120.22;;;-12.28;80.61
60089;BME280;45961;53.574;55.878;2022-12-05T00:02:55;102116.00;;;-12.22;80.77
60089;BME280;45961;53.574;55.878;2022-12-05T00:03:58;102133.78;;;-12.26;80.66
60089;BME280;45961;53.574;55.878;2022-12-05T00:05:00;102127.44;;;-12.37;80.64
60089;BME280;45961;53.574;55.878;2022-12-05T00:06:02;102129.81;;;-12.57;80.60
60089;BME280;45961;53.574;55.878;2022-12-05T00:07:04;102129.41;;;-12.34;80.82
60089;BME280;45961;53.574;55.878;2022-12-05T00:08:04;102110.56;;;-12.58;80.70
60089;BME280;45961;53.574;55.878;2022-12-05T00:09:08;102132.00;;;-12.27;80.83
60089;BME280;45961;53.574;55.878;2022-12-05T00:10:09;102126.72;;;-12.49;80.63
60089;BME280;45961;53.574;55.878;2022-12-05T00:11:21;102130.13;;;-12.48;80.70
60089;BME280;45961;53.574;55.878;2022-12-05T00:12:23;102125.91;;;-12.42;80.77
60089;BME280;45961;53.574;55.878;2022-12-05T00:13:24;102115.94;;;-12.42;80.67
60089;BME280;45961;53.574;55.878;2022-12-05T00:14:25;102122.91;;;-12.39;80.73
60089;BME280;45961;53.574;55.878;2022-12-05T00:15:26;102119.53;;;-12.40;80.84
60089;BME280;45961;53.574;55.878;2022-12-05T00:16:28;102151.56;;;-12.56;80.79
60089;BME280;45961;53.574;55.878;2022-12-05T00:17:31;102132.78;;;-12.59;80.88
60089;BME280;45961;53.574;55.878;2022-12-05T00:18:32;102122.03;;;-12.53;80.81
60089;BME280;45961;53.574;55.878;2022-12-05T00:19:33;102114.84;;;-12.44;81.10
60089;BME280;45961;53.574;55.878;2022-12-05T00:20:34;102114.34;;;-12.41;81.00
60089;BME280;45961;53.574;55.878;2022-12-05T00:21:36;102101.56;;;-12.63;80.98
60089;BME280;45961;53.574;55.878;2022-12-05T00:22:37;102124.41;;;-12.34;80.83
60089;BME280;45961;53.574;55.878;2022-12-05T00:23:39;102110.94;;;-12.42;80.80
60089;BME280;45961;53.574;55.878;2022-12-05T00:24:40;102110.75;;;-12.44;80.62
60089;BME280;45961;53.574;55.878;2022-12-05T00:25:41;102112.03;;;-12.27;80.97
60089;BME280;45961;53.574;55.878;2022-12-05T00:26:45;102115.94;;;-12.29;80.72
60089;BME280;45961;53.574;55.878;2022-12-05T00:27:46;102107.66;;;-12.48;80.75
60089;BME280;45961;53.574;55.878;2022-12-05T00:28:47;102106.19;;;-12.53;81.02
60089;BME280;45961;53.574;55.878;2022-12-05T00:29:49;102111.84;;;-12.54;80.96
60089;BME280;45961;53.574;55.878;2022-12-05T00:30:49;102107.56;;;-12.55;81.20
60089;BME280;45961;53.574;55.878;2022-12-05T00:31:50;102105.28;;;-12.41;81.16
60089;BME280;45961;53.574;55.878;2022-12-05T00:32:51;102115.66;;;-12.38;81.29
60089;BME280;45961;53.574;55.878;2022-12-05T00:33:53;102116.56;;;-12.37;80.90
60089;BME280;45961;53.574;55.878;2022-12-05T00:34:55;102110.53;;;-12.32;81.05
60089;BME280;45961;53.574;55.878;2022-12-05T00:36:01;102111.25;;;-12.33;80.89
60089;BME280;45961;53.574;55.878;2022-12-05T00:37:02;102113.94;;;-12.45;80.72
60089;BME280;45961;53.574;55.878;2022-12-05T00:38:03;102110.16;;;-12.48;81.15
60089;BME280;45961;53.574;55.878;2022-12-05T00:39:07;102112.94;;;-12.52;81.31
60089;BME280;45961;53.574;55.878;2022-12-05T00:40:08;102112.53;;;-12.55;81.28
60089;BME280;45961;53.574;55.878;2022-12-05T00:41:12;102081.31;;;-12.59;81.46
60089;BME280;45961;53.574;55.878;2022-12-05T00:42:13;102117.81;;;-12.47;81.66
60089;BME280;45961;53.574;55.878;2022-12-05T00:43:14;102112.53;;;-12.43;81.53
60089;BME280;45961;53.574;55.878;2022-12-05T00:44:15;102121.91;;;-12.47;81.47
60089;BME280;45961;53.574;55.878;2022-12-05T00:45:16;102109.75;;;-12.51;81.50
60089;BME280;45961;53.574;55.878;2022-12-05T00:46:22;102111.25;;;-12.46;81.72
60089;BME280;45961;53.574;55.878;2022-12-05T00:47:23;102109.97;;;-12.50;81.68
60089;BME280;45961;53.574;55.878;2022-12-05T00:48:24;102103.66;;;-12.40;81.51
60089;BME280;45961;53.574;55.878;2022-12-05T00:49:25;102107.84;;;-12.47;81.64
60089;BME280;45961;53.574;55.878;2022-12-05T00:50:46;102100.28;;;-12.41;81.53
60089;BME280;45961;53.574;55.878;2022-12-05T00:51:47;102111.16;;;-12.40;81.47
60089;BME280;45961;53.574;55.878;2022-12-05T00:52:48;102106.16;;;-12.40;81.43
60089;BME280;45961;53.574;55.878;2022-12-05T00:53:49;102112.56;;;-12.30;81.52
60089;BME280;45961;53.574;55.878;2022-12-05T00:54:50;102107.25;;;-12.26;81.18
60089;BME280;45961;53.574;55.878;2022-12-05T00:55:51;102109.38;;;-12.41;81.40
60089;BME280;45961;53.574;55.878;2022-12-05T00:56:52;102109.66;;;-12.33;81.40
60089;BME280;45961;53.574;55.878;2022-12-05T00:57:55;102104.38;;;-12.41;81.12
60089;BME280;45961;53.574;55.878;2022-12-05T00:58:58;102102.56;;;-12.30;81.28
60089;BME280;45961;53.574;55.878;2022-12-05T00:59:59;102107.84;;;-12.21;81.20
60089;BME280;45961;53.574;55.878;2022-12-05T01:01:21;102105.75;;;-12.31;81.14
60089;BME280;45961;53.574;55.878;2022-12-05T01:02:22;102111.63;;;-12.30;81.10
60089;BME280;45961;53.574;55.878;2022-12-05T01:03:23;102116.56;;;-12.37;80.92
60089;BME280;45961;53.574;55.878;2022-12-05T01:04:24;102109.22;;;-12.23;80.93
60089;BME280;45961;53.574;55.878;2022-12-05T01:05:26;102114.06;;;-12.37;80.87
60089;BME280;45961;53.574;55.878;2022-12-05T01:06:27;102111.41;;;-12.19;81.10
60089;BME280;45961;53.574;55.878;2022-12-05T01:07:28;102121.22;;;-12.33;81.01
60089;BME280;45961;53.574;55.878;2022-12-05T01:08:28;102102.06;;;-12.27;80.97
60089;BME280;45961;53.574;55.878;2022-12-05T01:09:31;102110.41;;;-12.14;81.09
60089;BME280;45961;53.574;55.878;2022-12-05T01:10:32;102110.53;;;-12.20;80.96
60089;BME280;45961;53.574;55.878;2022-12-05T01:11:33;102103.84;;;-12.13;80.98
60089;BME280;45961;53.574;55.878;2022-12-05T01:12:34;102109.44;;;-12.34;80.72
60089;BME280;45961;53.574;55.878;2022-12-05T01:13:36;102108.94;;;-12.32;80.91
60089;BME280;45961;53.574;55.878;2022-12-05T01:14:37;102103.38;;;-12.36;81.20
60089;BME280;45961;53.574;55.878;2022-12-05T01:15:37;102093.09;;;-12.45;81.29
60089;BME280;45961;53.574;55.878;2022-12-05T01:16:40;102103.78;;;-12.33;81.47
60089;BME280;45961;53.574;55.878;2022-12-05T01:17:41;102100.56;;;-12.32;81.52
60089;BME280;45961;53.574;55.878;2022-12-05T01:18:42;102100.47;;;-12.39;81.54
60089;BME280;45961;53.574;55.878;2022-12-05T01:19:43;102101.66;;;-12.30;81.58
60089;BME280;45961;53.574;55.878;2022-12-05T01:20:47;102098.06;;;-12.32;81.78
60089;BME280;45961;53.574;55.878;2022-12-05T01:21:48;102098.78;;;-12.33;81.58
60089;BME280;45961;53.574;55.878;2022-12-05T01:22:50;102097.47;;;-12.37;81.89
60089;BME280;45961;53.574;55.878;2022-12-05T01:23:51;102100.06;;;-12.30;81.82
60089;BME280;45961;53.574;55.878;2022-12-05T01:24:52;102100.97;;;-12.29;81.73
60089;BME280;45961;53.574;55.878;2022-12-05T01:25:53;102093.19;;;-12.51;81.85
60089;BME280;45961;53.574;55.878;2022-12-05T01:26:55;102097.69;;;-12.48;81.82
60089;BME280;45961;53.574;55.878;2022-12-05T01:27:56;102121.03;;;-12.48;82.05
60089;BME280;45961;53.574;55.878;2022-12-05T01:28:56;102091.97;;;-12.34;82.07
60089;BME280;45961;53.574;55.878;2022-12-05T01:29:57;102102.84;;;-12.47;81.84
60089;BME280;45961;53.574;55.878;2022-12-05T01:31:04;102080.09;;;-12.43;81.91
60089;BME280;45961;53.574;55.878;2022-12-05T01:32:05;102102.50;;;-12.50;81.58
60089;BME280;45961;53.574;55.878;2022-12-05T01:33:07;102091.16;;;-12.28;81.66
60089;BME280;45961;53.574;55.878;2022-12-05T01:34:09;102096.38;;;-12.39;81.52
60089;BME280;45961;53.574;55.878;2022-12-05T01:35:10;102097.25;;;-12.38;81.09
60089;BME280;45961;53.574;55.878;2022-12-05T01:36:12;102087.28;;;-12.38;81.36
60089;BME280;45961;53.574;55.878;2022-12-05T01:37:12;102098.69;;;-12.40;81.49
60089;BME280;45961;53.574;55.878;2022-12-05T01:38:14;102096.28;;;-12.33;81.44
60089;BME280;45961;53.574;55.878;2022-12-05T01:39:14;102088.88;;;-12.26;81.44
60089;BME280;45961;53.574;55.878;2022-12-05T01:40:16;102095.44;;;-12.14;81.39
60089;BME280;45961;53.574;55.878;2022-12-05T01:41:32;102084.69;;;-12.33;81.18
60089;BME280;45961;53.574;55.878;2022-12-05T01:42:33;102094.47;;;-12.34;81.13
60089;BME280;45961;53.574;55.878;2022-12-05T01:45:54;102080.19;;;-12.35;81.22
60089;BME280;45961;53.574;55.878;2022-12-05T01:46:56;102076.44;;;-12.52;81.30
60089;BME280;45961;53.574;55.878;2022-12-05T01:47:58;102086.78;;;-12.36;81.42
60089;BME280;45961;53.574;55.878;2022-12-05T01:49:10;102084.41;;;-12.41;81.37
60089;BME280;45961;53.574;55.878;2022-12-05T01:50:13;102088.41;;;-12.36;81.55
60089;BME280;45961;53.574;55.878;2022-12-05T01:51:14;102091.97;;;-12.34;81.51
60089;BME280;45961;53.574;55.878;2022-12-05T01:52:20;102082.09;;;-12.27;81.67
60089;BME280;45961;53.574;55.878;2022-12-05T01:53:23;102083.09;;;-12.32;81.51
60089;BME280;45961;53.574;55.878;2022-12-05T01:54:24;102082.50;;;-12.24;81.65
60089;BME280;45961;53.574;55.878;2022-12-05T01:55:25;102083.19;;;-12.25;81.51
60089;BME280;45961;53.574;55.878;2022-12-05T01:56:27;102083.81;;;-12.33;81.87
60089;BME280;45961;53.574;55.878;2022-12-05T01:57:28;102077.13;;;-12.40;81.70
60089;BME280;45961;53.574;55.878;2022-12-05T01:58:35;102075.34;;;-12.54;81.81
60089;BME280;45961;53.574;55.878;2022-12-05T01:59:40;102084.78;;;-12.38;82.00
60089;BME280;45961;53.574;55.878;2022-12-05T02:00:42;102082.09;;;-12.40;82.04
60089;BME280;45961;53.574;55.878;2022-12-05T02:01:43;102077.00;;;-12.34;82.15
60089;BME280;45961;53.574;55.878;2022-12-05T02:02:51;102083.50;;;-12.29;82.06
60089;BME280;45961;53.574;55.878;2022-12-05T02:03:56;102090.88;;;-12.36;82.18
60089;BME280;45961;53.574;55.878;2022-12-05T02:05:11;102077.44;;;-12.44;82.21
60089;BME280;45961;53.574;55.878;2022-12-05T02:06:15;102082.59;;;-12.43;82.13
60089;BME280;45961;53.574;55.878;2022-12-05T02:07:17;102087.00;;;-12.47;81.90
60089;BME280;45961;53.574;55.878;2022-12-05T02:08:19;102083.50;;;-12.42;82.24
60089;BME280;45961;53.574;55.878;2022-12-05T02:09:21;102082.78;;;-12.28;82.26
60089;BME280;45961;53.574;55.878;2022-12-05T02:10:24;102085.31;;;-12.41;82.11
60089;BME280;45961;53.574;55.878;2022-12-05T02:11:27;102076.84;;;-12.49;82.13
60089;BME280;45961;53.574;55.878;2022-12-05T02:12:29;102080.72;;;-12.38;82.22
60089;BME280;45961;53.574;55.878;2022-12-05T02:13:33;102082.81;;;-12.41;82.15
60089;BME280;45961;53.574;55.878;2022-12-05T02:17:29;102072.56;;;-12.50;82.10
60089;BME280;45961;53.574;55.878;2022-12-05T02:24:53;102092.59;;;-12.68;81.89
60089;BME280;45961;53.574;55.878;2022-12-05T02:26:01;102080.66;;;-12.58;82.30
60089;BME280;45961;53.574;55.878;2022-12-05T02:30:53;102083.13;;;-12.58;82.11
60089;BME280;45961;53.574;55.878;2022-12-05T02:33:34;102082.03;;;-12.85;82.27
60089;BME280;45961;53.574;55.878;2022-12-05T02:34:54;102071.84;;;-12.74;82.37
60089;BME280;45961;53.574;55.878;2022-12-05T02:36:04;102069.84;;;-12.64;82.50
60089;BME280;45961;53.574;55.878;2022-12-05T02:37:15;102071.75;;;-12.56;82.50
60089;BME280;45961;53.574;55.878;2022-12-05T02:38:50;102074.06;;;-12.57;82.18
60089;BME280;45961;53.574;55.878;2022-12-05T02:40:14;102072.56;;;-12.50;82.22
60089;BME280;45961;53.574;55.878;2022-12-05T02:42:00;102071.94;;;-12.54;82.24
60089;BME280;45961;53.574;55.878;2022-12-05T02:43:10;102080.13;;;-12.68;82.30
60089;BME280;45961;53.574;55.878;2022-12-05T02:45:17;102067.78;;;-12.61;82.18
60089;BME280;45961;53.574;55.878;2022-12-05T02:46:21;102079.72;;;-12.71;82.21
60089;BME280;45961;53.574;55.878;2022-12-05T02:47:26;102075.75;;;-12.63;82.47
60089;BME280;45961;53.574;55.878;2022-12-05T02:48:30;102077.53;;;-12.50;82.50
60089;BME280;45961;53.574;55.878;2022-12-05T02:49:35;102066.56;;;-12.45;82.27
60089;BME280;45961;53.574;55.878;2022-12-05T02:50:40;102076.84;;;-12.49;82.14
60089;BME280;45961;53.574;55.878;2022-12-05T02:51:45;102067.44;;;-12.44;82.24
60089;BME280;45961;53.574;55.878;2022-12-05T02:52:49;102083.44;;;-12.49;82.06
60089;BME280;45961;53.574;55.878;2022-12-05T02:53:52;102074.72;;;-12.58;82.06
60089;BME280;45961;53.574;55.878;2022-12-05T02:55:00;102076.03;;;-12.68;82.30
60089;BME280;45961;53.574;55.878;2022-12-05T02:56:02;102080.25;;;-12.61;82.44
60089;BME280;45961;53.574;55.878;2022-12-05T02:57:05;102070.56;;;-12.52;82.36
60089;BME280;45961;53.574;55.878;2022-12-05T02:58:13;102076.72;;;-12.56;82.43
60089;BME280;45961;53.574;55.878;2022-12-05T02:59:15;102076.44;;;-12.64;82.55
60089;BME280;45961;53.574;55.878;2022-12-05T03:00:16;102079.13;;;-12.63;82.49
60089;BME280;45961;53.574;55.878;2022-12-05T03:01:20;102062.28;;;-12.71;82.47
60089;BME280;45961;53.574;55.878;2022-12-05T03:02:25;102045.84;;;-12.89;82.36
60089;BME280;45961;53.574;55.878;2022-12-05T03:03:27;102074.94;;;-12.57;82.50
60089;BME280;45961;53.574;55.878;2022-12-05T03:04:29;102065.97;;;-12.62;82.56
60089;BME280;45961;53.574;55.878;2022-12-05T03:06:20;102072.25;;;-12.58;82.49
60089;BME280;45961;53.574;55.878;2022-12-05T03:07:09;102076.31;;;-12.59;82.49
60089;BME280;45961;53.574;55.878;2022-12-05T03:08:16;102062.19;;;-12.53;82.33
60089;BME280;45961;53.574;55.878;2022-12-05T03:09:27;102064.56;;;-12.60;82.23
60089;BME280;45961;53.574;55.878;2022-12-05T03:10:33;102069.38;;;-12.61;82.44
60089;BME280;45961;53.574;55.878;2022-12-05T03:11:50;102074.06;;;-12.70;82.36
60089;BME280;45961;53.574;55.878;2022-12-05T03:12:56;102087.72;;;-12.74;82.17
60089;BME280;45961;53.574;55.878;2022-12-05T03:14:02;102069.06;;;-12.57;82.41
60089;BME280;45961;53.574;55.878;2022-12-05T03:15:20;102070.56;;;-12.65;82.41
60089;BME280;45961;53.574;55.878;2022-12-05T03:16:32;102070.25;;;-12.61;82.35
60089;BME280;45961;53.574;55.878;2022-12-05T03:17:49;102070.66;;;-12.58;82.46
60089;BME280;45961;53.574;55.878;2022-12-05T03:18:58;102061.06;;;-12.55;82.26
60089;BME280;45961;53.574;55.878;2022-12-05T03:20:27;102043.34;;;-12.76;82.19
60089;BME280;45961;53.574;55.878;2022-12-05T03:21:36;102073.16;;;-12.58;82.30
60089;BME280;45961;53.574;55.878;2022-12-05T03:22:45;102067.25;;;-12.58;82.33
60089;BME280;45961;53.574;55.878;2022-12-05T03:23:52;102081.31;;;-12.72;82.15
60089;BME280;45961;53.574;55.878;2022-12-05T03:24:56;102057.19;;;-12.65;82.53
60089;BME280;45961;53.574;55.878;2022-12-05T03:27:51;102053.72;;;-12.73;82.50
60089;BME280;45961;53.574;55.878;2022-12-05T03:29:18;102063.50;;;-12.62;82.51
60089;BME280;45961;53.574;55.878;2022-12-05T03:30:21;102062.66;;;-12.55;82.67
60089;BME280;45961;53.574;55.878;2022-12-05T03:33:13;102058.88;;;-12.72;82.65
60089;BME280;45961;53.574;55.878;2022-12-05T03:34:21;102048.22;;;-12.83;82.63
60089;BME280;45961;53.574;55.878;2022-12-05T03:36:44;102065.66;;;-12.71;82.70
60089;BME280;45961;53.574;55.878;2022-12-05T03:37:54;102064.66;;;-12.78;82.74
60089;BME280;45961;53.574;55.878;2022-12-05T03:39:05;102053.31;;;-12.76;82.88
60089;BME280;45961;53.574;55.878;2022-12-05T03:42:35;102055.50;;;-12.72;83.11
60089;BME280;45961;53.574;55.878;2022-12-05T03:43:53;102052.69;;;-12.55;83.08
60089;BME280;45961;53.574;55.878;2022-12-05T03:45:05;102023.09;;;-12.72;83.02
60089;BME280;45961;53.574;55.878;2022-12-05T03:46:12;102064.56;;;-12.60;82.74
60089;BME280;45961;53.574;55.878;2022-12-05T03:47:41;102066.06;;;-12.68;82.56
60089;BME280;45961;53.574;55.878;2022-12-05T03:49:08;102062.56;;;-12.75;82.50
60089;BME280;45961;53.574;55.878;2022-12-05T03:50:20;102059.09;;;-12.70;82.54
60089;BME280;45961;53.574;55.878;2022-12-05T03:51:27;102058.56;;;-12.55;82.44
60089;BME280;45961;53.574;55.878;2022-12-05T03:52:45;102072.44;;;-12.57;82.49
60089;BME280;45961;53.574;55.878;2022-12-05T03:53:51;102075.25;;;-12.74;82.31
60089;BME280;45961;53.574;55.878;2022-12-05T03:55:04;102070.06;;;-12.88;82.43
60089;BME280;45961;53.574;55.878;2022-12-05T03:56:24;102067.38;;;-12.89;82.71
60089;BME280;45961;53.574;55.878;2022-12-05T03:57:38;102079.53;;;-12.85;82.47
60089;BME280;45961;53.574;55.878;2022-12-05T03:58:52;102073.97;;;-12.90;82.49
60089;BME280;45961;53.574;55.878;2022-12-05T04:00:00;102074.44;;;-12.93;82.53
60089;BME280;45961;53.574;55.878;2022-12-05T04:01:07;102074.25;;;-12.81;82.65
60089;BME280;45961;53.574;55.878;2022-12-05T04:02:14;102090.19;;;-12.86;82.73
60089;BME280;45961;53.574;55.878;2022-12-05T04:03:35;102065.66;;;-12.83;82.40
60089;BME280;45961;53.574;55.878;2022-12-05T04:05:03;102094.19;;;-12.81;82.63
60089;BME280;45961;53.574;55.878;2022-12-05T04:06:32;102067.25;;;-12.84;82.33
60089;BME280;45961;53.574;55.878;2022-12-05T04:07:34;102056.22;;;-12.73;82.37
60089;BME280;45961;53.574;55.878;2022-12-05T04:08:47;102076.75;;;-12.81;81.93
60089;BME280;45961;53.574;55.878;2022-12-05T04:09:57;102079.44;;;-12.93;82.08
60089;BME280;45961;53.574;55.878;2022-12-05T04:11:02;102071.16;;;-12.73;82.23
60089;BME280;45961;53.574;55.878;2022-12-05T04:12:10;102069.56;;;-12.73;82.11
60089;BME280;45961;53.574;55.878;2022-12-05T04:13:41;102050.13;;;-12.88;82.01
60089;BME280;45961;53.574;55.878;2022-12-05T04:14:49;102073.25;;;-12.76;81.99
60089;BME280;45961;53.574;55.878;2022-12-05T04:15:57;102076.25;;;-12.66;82.21
60089;BME280;45961;53.574;55.878;2022-12-05T04:18:33;102074.34;;;-12.87;81.95
60089;BME280;45961;53.574;55.878;2022-12-05T04:19:45;102065.66;;;-12.83;81.96
60089;BME280;45961;53.574;55.878;2022-12-05T04:21:05;102064.47;;;-12.93;81.96
60089;BME280;45961;53.574;55.878;2022-12-05T04:22:25;102080.31;;;-12.66;81.86
60089;BME280;45961;53.574;55.878;2022-12-05T04:23:27;102079.03;;;-12.83;81.79
60089;BME280;45961;53.574;55.878;2022-12-05T04:24:30;102075.81;;;-12.95;81.72
60089;BME280;45961;53.574;55.878;2022-12-05T04:26:04;102087.81;;;-12.79;81.60
60089;BME280;45961;53.574;55.878;2022-12-05T04:27:27;102082.41;;;-12.95;81.57
60089;BME280;45961;53.574;55.878;2022-12-05T04:28:38;102078.72;;;-12.91;81.57
60089;BME280;45961;53.574;55.878;2022-12-05T04:29:56;102088.59;;;-12.99;81.63
60089;BME280;45961;53.574;55.878;2022-12-05T04:31:13;102090.00;;;-13.01;81.58
60089;BME280;45961;53.574;55.878;2022-12-05T04:32:17;102085.19;;;-13.12;81.68
60089;BME280;45961;53.574;55.878;2022-12-05T04:33:49;102092.06;;;-13.04;81.67
60089;BME280;45961;53.574;55.878;2022-12-05T04:34:57;102093.97;;;-13.08;81.73
60089;BME280;45961;53.574;55.878;2022-12-05T04:36:28;102086.69;;;-13.07;81.53
60089;BME280;45961;53.574;55.878;2022-12-05T04:37:29;102087.78;;;-13.05;81.52
60089;BME280;45961;53.574;55.878;2022-12-05T04:40:00;102095.75;;;-13.07;81.56
60089;BME280;45961;53.574;55.878;2022-12-05T04:41:06;102080.69;;;-13.14;81.48
60089;BME280;45961;53.574;55.878;2022-12-05T04:42:14;102099.13;;;-13.20;81.51
60089;BME280;45961;53.574;55.878;2022-12-05T04:43:18;102095.94;;;-13.31;81.34
60089;BME280;45961;53.574;55.878;2022-12-05T04:44:28;102056.63;;;-13.52;81.66
60089;BME280;45961;53.574;55.878;2022-12-05T04:45:32;102096.72;;;-13.38;81.44
60089;BME280;45961;53.574;55.878;2022-12-05T04:46:37;102095.03;;;-13.19;81.65
60089;BME280;45961;53.574;55.878;2022-12-05T04:47:42;102081.50;;;-13.34;81.61
60089;BME280;45961;53.574;55.878;2022-12-05T04:48:51;102102.06;;;-13.48;81.62
60089;BME280;45961;53.574;55.878;2022-12-05T04:49:55;102098.22;;;-13.20;81.81
60089;BME280;45961;53.574;55.878;2022-12-05T04:50:57;102095.44;;;-13.16;81.54
60089;BME280;45961;53.574;55.878;2022-12-05T04:52:02;102102.22;;;-13.15;81.58
60089;BME280;45961;53.574;55.878;2022-12-05T04:53:04;102096.25;;;-13.10;81.25
60089;BME280;45961;53.574;55.878;2022-12-05T04:54:14;102102.50;;;-13.19;81.04
60089;BME280;45961;53.574;55.878;2022-12-05T04:55:22;102109.84;;;-13.39;81.27
60089;BME280;45961;53.574;55.878;2022-12-05T04:56:29;102122.22;;;-13.46;81.18
60089;BME280;45961;53.574;55.878;2022-12-05T04:57:41;102111.69;;;-13.38;81.25
60089;BME280;45961;53.574;55.878;2022-12-05T04:58:45;102117.41;;;-13.26;81.24
60089;BME280;45961;53.574;55.878;2022-12-05T04:59:47;102107.31;;;-13.33;81.08
60089;BME280;45961;53.574;55.878;2022-12-05T05:02:39;102104.84;;;-13.52;81.40
60089;BME280;45961;53.574;55.878;2022-12-05T05:03:47;102107.47;;;-13.63;81.20
60089;BME280;45961;53.574;55.878;2022-12-05T05:04:52;102104.56;;;-13.48;81.64
60089;BME280;45961;53.574;55.878;2022-12-05T05:05:55;102107.19;;;-13.40;81.48
60089;BME280;45961;53.574;55.878;2022-12-05T05:06:57;102106.25;;;-13.54;81.41
60089;BME280;45961;53.574;55.878;2022-12-05T05:08:01;102099.28;;;-13.44;81.64
60089;BME280;45961;53.574;55.878;2022-12-05T05:09:07;102099.78;;;-13.46;81.37
60089;BME280;45961;53.574;55.878;2022-12-05T05:10:13;102081.84;;;-13.44;81.40
60089;BME280;45961;53.574;55.878;2022-12-05T05:11:21;102099.22;;;-13.38;81.14
60089;BME280;45961;53.574;55.878;2022-12-05T05:12:23;102102.75;;;-13.49;81.18
60089;BME280;45961;53.574;55.878;2022-12-05T05:13:24;102093.75;;;-13.66;80.92
60089;BME280;45961;53.574;55.878;2022-12-05T05:14:25;102099.56;;;-13.48;81.37
60089;BME280;45961;53.574;55.878;2022-12-05T05:15:26;102095.72;;;-13.46;81.21
60089;BME280;45961;53.574;55.878;2022-12-05T05:16:33;102096.22;;;-13.35;81.21
60089;BME280;45961;53.574;55.878;2022-12-05T05:17:34;102103.41;;;-13.31;81.14
60089;BME280;45961;53.574;55.878;2022-12-05T05:18:35;102102.59;;;-13.37;80.91
60089;BME280;45961;53.574;55.878;2022-12-05T05:19:36;102110.50;;;-13.22;80.78
60089;BME280;45961;53.574;55.878;2022-12-05T05:20:37;102112.69;;;-13.61;80.83
60089;BME280;45961;53.574;55.878;2022-12-05T05:21:40;102115.44;;;-13.65;81.03
60089;BME280;45961;53.574;55.878;2022-12-05T05:22:45;102126.16;;;-13.72;81.19
60089;BME280;45961;53.574;55.878;2022-12-05T05:23:47;102126.59;;;-13.69;81.55
60089;BME280;45961;53.574;55.878;2022-12-05T05:24:48;102125.19;;;-13.67;81.52
60089;BME280;45961;53.574;55.878;2022-12-05T05:25:57;102104.88;;;-13.70;81.98
60089;BME280;45961;53.574;55.878;2022-12-05T05:26:58;102125.88;;;-13.68;81.99
60089;BME280;45961;53.574;55.878;2022-12-05T05:27:59;102125.56;;;-13.77;81.98
60089;BME280;45961;53.574;55.878;2022-12-05T05:29:00;102120.34;;;-13.60;82.15
60089;BME280;45961;53.574;55.878;2022-12-05T05:30:01;102106.09;;;-13.61;82.17
60089;BME280;45961;53.574;55.878;2022-12-05T05:31:03;102118.13;;;-13.64;82.05
60089;BME280;45961;53.574;55.878;2022-12-05T05:32:05;102114.38;;;-13.55;82.10
60089;BME280;45961;53.574;55.878;2022-12-05T05:33:05;102099.38;;;-13.49;82.26
60089;BME280;45961;53.574;55.878;2022-12-05T05:34:11;102106.91;;;-13.55;82.06
60089;BME280;45961;53.574;55.878;2022-12-05T05:35:12;102109.69;;;-13.59;81.96
60089;BME280;45961;53.574;55.878;2022-12-05T05:36:14;102107.09;;;-13.66;81.94
60089;BME280;45961;53.574;55.878;2022-12-05T05:37:15;102098.22;;;-13.33;82.08
60089;BME280;45961;53.574;55.878;2022-12-05T05:38:16;102100.72;;;-13.33;81.78
60089;BME280;45961;53.574;55.878;2022-12-05T05:39:17;102103.22;;;-13.33;81.79
60089;BME280;45961;53.574;55.878;2022-12-05T05:40:18;102115.19;;;-13.30;81.47
60089;BME280;45961;53.574;55.878;2022-12-05T05:41:23;102100.53;;;-13.22;81.48
60089;BME280;45961;53.574;55.878;2022-12-05T05:42:24;102105.72;;;-13.33;81.48
60089;BME280;45961;53.574;55.878;2022-12-05T05:43:27;102119.81;;;-13.39;81.49
60089;BME280;45961;53.574;55.878;2022-12-05T05:44:28;102094.28;;;-13.25;81.62
60089;BME280;45961;53.574;55.878;2022-12-05T05:45:29;102100.16;;;-13.25;81.55
60089;BME280;45961;53.574;55.878;2022-12-05T05:46:33;102100.44;;;-13.29;81.54
60089;BME280;45961;53.574;55.878;2022-12-05T05:47:34;102104.56;;;-13.48;81.61
60089;BME280;45961;53.574;55.878;2022-12-05T05:48:38;102101.88;;;-13.49;81.89
60089;BME280;45961;53.574;55.878;2022-12-05T05:49:40;102092.25;;;-13.59;81.84
60089;BME280;45961;53.574;55.878;2022-12-05T05:50:41;102102.47;;;-13.45;81.94
60089;BME280;45961;53.574;55.878;2022-12-05T05:51:45;102085.88;;;-13.38;82.01
60089;BME280;45961;53.574;55.878;2022-12-05T05:52:46;102097.78;;;-13.49;81.97
60089;BME280;45961;53.574;55.878;2022-12-05T05:53:47;102090.97;;;-13.62;82.45
60089;BME280;45961;53.574;55.878;2022-12-05T05:54:48;102103.47;;;-13.50;82.49
60089;BME280;45961;53.574;55.878;2022-12-05T05:55:49;102105.69;;;-13.64;82.57
60089;BME280;45961;53.574;55.878;2022-12-05T05:56:50;102111.88;;;-13.36;82.69
60089;BME280;45961;53.574;55.878;2022-12-05T05:57:51;102112.63;;;-13.43;82.50
60089;BME280;45961;53.574;55.878;2022-12-05T05:59:00;102118.25;;;-13.38;82.42
60089;BME280;45961;53.574;55.878;2022-12-05T06:00:05;102112.53;;;-13.50;82.44
60089;BME280;45961;53.574;55.878;2022-12-05T06:01:09;102111.75;;;-13.44;82.39
60089;BME280;45961;53.574;55.878;2022-12-05T06:02:11;102120.75;;;-13.57;82.23
60089;BME280;45961;53.574;55.878;2022-12-05T06:03:16;102103.53;;;-13.24;82.74
60089;BME280;45961;53.574;55.878;2022-12-05T06:04:18;102104.81;;;-13.33;82.07
60089;BME280;45961;53.574;55.878;2022-12-05T06:05:19;102101.19;;;-13.35;82.16